Terminal Aerodrome Forecast
Issued by NWS North Platte, NE

Home | Current Version | Previous Version | Text Only | Print | Product List | Glossary Off
Versions: 1 2 3 4 5 6 7 8 9 10 11 12 13 14 15

000
FTUS43 KLBF 251700
TAFVTN
TAF
KVTN 251733Z 2518/2618 02014G22KT 1/2SM FZFG OVC003
     FM252100 01014G20KT 3SM -SN BR OVC003
      TEMPO 2521/2601 1/2SM -SN FZFG
     FM260100 36016G24KT 2SM -SN BR OVC012
     FM261500 36010KT 5SM BR OVC005=

USA.gov is the U.S. government's official web portal to all federal, state and local government web resources and services.